Time;durP1;ratioP1;P1;durP2;ratioP2;P2;SDS_P1;SDS_P2;PMS_P1;PMS_P2;Temp;Humidity;BMP_temperature;BMP_pressure;BME280_temperature;BME280_humidity;BME280_pressure;Samples;Min_cycle;Max_cycle;Signal;HPM_P1;HPM_P2
2022/11/03 00:02:04;;;;;;;9.93;3.67;;;7.40;99.90;;;6.87;100.00;97681.31;4968538;28;20045;-60
2022/11/03 00:04:30;;;;;;;8.93;3.78;;;7.40;99.90;;;6.85;100.00;97679.59;4972739;28;20026;-60
2022/11/03 00:06:55;;;;;;;6.55;3.58;;;7.40;99.90;;;6.83;100.00;97681.38;4973827;28;20406;-60
2022/11/03 00:09:23;;;;;;;8.77;3.92;;;7.40;99.90;;;6.80;100.00;97691.91;4987754;22;20022;-51
2022/11/03 00:11:50;;;;;;;10.70;3.97;;;7.40;99.90;;;6.76;100.00;97679.75;5011447;28;20091;-49
2022/11/03 00:14:16;;;;;;;8.95;4.28;;;7.30;99.90;;;6.72;100.00;97675.47;5011297;28;20837;-48
2022/11/03 00:16:42;;;;;;;9.75;4.25;;;7.30;99.90;;;6.67;100.00;97665.06;5010213;28;20029;-47
2022/11/03 00:19:09;;;;;;;6.35;3.58;;;7.20;99.90;;;6.62;100.00;97657.28;5012545;28;20403;-51
2022/11/03 00:21:36;;;;;;;6.60;3.67;;;7.20;99.90;;;6.55;100.00;97655.66;4992692;28;20026;-49
2022/11/03 00:24:02;;;;;;;13.80;4.40;;;7.20;99.90;;;6.56;100.00;97664.38;4991848;28;20034;-51
2022/11/03 00:26:31;;;;;;;9.60;4.25;;;7.20;99.90;;;6.55;100.00;97667.88;4991504;28;20037;-48
2022/11/03 00:29:00;;;;;;;8.25;4.03;;;7.10;99.90;;;6.52;100.00;97666.19;4993383;28;20053;-49
2022/11/03 00:31:32;;;;;;;10.73;3.55;;;7.10;99.90;;;6.51;100.00;97667.06;4988072;28;20417;-48
2022/11/03 00:33:59;;;;;;;11.68;4.38;;;7.10;99.90;;;6.47;100.00;97660.16;4989486;28;20050;-48
2022/11/03 00:36:34;;;;;;;11.60;4.18;;;7.10;99.90;;;6.46;100.00;97653.16;4995514;28;20080;-52
2022/11/03 00:39:00;;;;;;;10.02;4.53;;;7.00;99.90;;;6.46;100.00;97659.28;4991542;28;20034;-50
2022/11/03 00:41:26;;;;;;;12.15;4.10;;;7.10;99.90;;;6.45;100.00;97647.06;4990634;28;20100;-49
2022/11/03 00:43:53;;;;;;;9.15;4.28;;;7.00;99.90;;;6.39;100.00;97638.44;4992637;28;20125;-48
2022/11/03 00:46:20;;;;;;;9.23;3.88;;;7.00;99.90;;;6.40;100.00;97640.19;4995621;28;20029;-48
2022/11/03 00:48:46;;;;;;;8.07;4.07;;;7.00;99.90;;;6.36;100.00;97635.88;4993715;28;20040;-50
2022/11/03 00:51:25;;;;;;;11.32;4.20;;;7.00;99.90;;;6.31;100.00;97634.19;4994186;28;20038;-51
2022/11/03 00:54:02;;;;;;;6.95;3.60;;;6.90;99.90;;;6.28;100.00;97630.75;4994684;28;20033;-51
2022/11/03 00:56:37;;;;;;;9.13;3.78;;;6.90;99.90;;;6.13;100.00;97604.81;4986470;28;20501;-48
2022/11/03 00:59:04;;;;;;;6.45;3.47;;;6.80;99.90;;;6.08;100.00;97594.41;4990063;28;20357;-51
2022/11/03 01:01:39;;;;;;;6.55;3.67;;;6.80;99.90;;;6.22;100.00;97626.47;4992390;28;20831;-49
2022/11/03 01:06:53;;;;;;;10.73;4.05;;;6.80;99.90;;;6.23;100.00;97627.38;4989955;28;20036;-47
2022/11/03 01:09:39;;;;;;;8.50;4.47;;;6.80;99.90;;;6.21;100.00;97613.41;4990670;28;20041;-49
2022/11/03 01:12:23;;;;;;;5.75;3.63;;;6.80;99.90;;;6.18;100.00;97606.47;4995174;28;20034;-49
2022/11/03 01:14:52;;;;;;;12.38;4.10;;;6.80;99.90;;;6.17;100.00;97607.34;4989557;28;20057;-47
2022/11/03 01:17:25;;;;;;;7.50;4.18;;;6.80;99.90;;;6.15;100.00;97608.28;4989863;28;20169;-48
2022/11/03 01:19:51;;;;;;;11.23;4.10;;;6.80;99.90;;;6.09;100.00;97601.41;4991493;28;20215;-49
2022/11/03 01:22:18;;;;;;;6.82;3.83;;;6.80;99.90;;;6.11;100.00;97610.94;4990852;28;20064;-48
2022/11/03 01:24:44;;;;;;;8.50;3.95;;;6.70;99.90;;;6.10;100.00;97603.09;4991536;28;20118;-49
2022/11/03 01:27:14;;;;;;;8.63;4.03;;;6.70;99.90;;;6.11;100.00;97600.47;4991576;28;20029;-48
2022/11/03 01:29:40;;;;;;;7.43;4.10;;;6.70;99.90;;;6.11;100.00;97594.38;4990238;28;20038;-49
2022/11/03 01:32:07;;;;;;;8.27;3.92;;;6.70;99.90;;;6.10;100.00;97590.91;4990336;28;20038;-47
2022/11/03 01:34:33;;;;;;;11.15;4.35;;;6.70;99.90;;;6.11;100.00;97589.13;4990531;28;20033;-50
2022/11/03 01:36:59;;;;;;;6.75;3.70;;;6.70;99.90;;;6.09;100.00;97583.91;4991306;28;20121;-49
2022/11/03 01:39:25;;;;;;;13.60;4.57;;;6.70;99.90;;;6.09;100.00;97585.69;4991258;28;20025;-47
2022/11/03 01:41:52;;;;;;;10.40;4.13;;;6.70;99.90;;;6.08;100.00;97583.94;4992178;28;20026;-48
2022/11/03 01:44:17;;;;;;;9.13;4.03;;;6.70;99.90;;;6.06;100.00;97570.88;4994537;28;20057;-48
2022/11/03 01:47:10;;;;;;;6.63;3.83;;;6.70;99.90;;;6.03;100.00;97570.06;4990425;28;20427;-47
2022/11/03 01:49:45;;;;;;;8.63;3.92;;;6.70;99.90;;;6.01;100.00;97574.47;4992361;28;20315;-49
2022/11/03 01:52:32;;;;;;;7.50;4.13;;;6.60;99.90;;;5.99;100.00;97564.00;4994133;28;20075;-47
2022/11/03 01:55:05;;;;;;;8.90;4.28;;;6.60;99.90;;;5.98;100.00;97566.69;4994110;28;20034;-49
2022/11/03 01:57:43;;;;;;;9.02;3.72;;;6.60;99.90;;;5.95;100.00;97553.59;4992809;28;20060;-49
2022/11/03 02:00:10;;;;;;;7.00;3.45;;;6.60;99.90;;;5.97;100.00;97555.31;4986022;28;20034;-51
2022/11/03 02:02:36;;;;;;;7.65;3.42;;;6.60;99.90;;;6.00;100.00;97555.28;4993635;28;20026;-47
2022/11/03 02:05:04;;;;;;;5.75;3.22;;;6.60;99.90;;;6.03;100.00;97546.50;4992033;28;20492;-48
2022/11/03 02:07:37;;;;;;;8.43;3.60;;;6.60;99.90;;;6.03;100.00;97542.13;4991770;28;20056;-50
2022/11/03 02:10:05;;;;;;;5.47;3.17;;;6.60;99.90;;;6.03;100.00;97544.75;4990430;28;20142;-47
2022/11/03 02:12:31;;;;;;;8.00;3.72;;;6.70;99.90;;;6.06;100.00;97543.84;4967147;28;20030;-49
2022/11/03 02:15:09;;;;;;;6.95;3.42;;;6.70;99.90;;;6.06;100.00;97539.44;4985836;28;20393;-49
2022/11/03 02:17:36;;;;;;;6.65;2.80;;;6.70;99.90;;;6.05;100.00;97535.13;4993184;28;20168;-49
2022/11/03 02:20:27;;;;;;;8.10;3.10;;;6.70;99.90;;;6.11;100.00;97539.38;4994541;28;20034;-49
2022/11/03 02:23:13;;;;;;;10.70;2.97;;;6.70;99.90;;;6.11;100.00;97539.38;4981321;28;20162;-50
2022/11/03 02:25:58;;;;;;;6.32;3.03;;;6.70;99.90;;;6.10;100.00;97535.03;4990815;28;20049;-49
2022/11/03 02:28:31;;;;;;;5.60;3.10;;;6.70;99.90;;;6.08;100.00;97526.34;4992506;28;20030;-51
2022/11/03 02:31:12;;;;;;;8.20;3.17;;;6.70;99.90;;;6.07;100.00;97528.09;4994681;28;20030;-50
2022/11/03 02:33:56;;;;;;;7.35;2.70;;;6.70;99.90;;;6.07;100.00;97524.63;4994336;28;20029;-48
2022/11/03 02:36:43;;;;;;;6.13;2.67;;;6.70;99.90;;;6.03;100.00;97518.56;4990280;28;20034;-52
2022/11/03 02:39:23;;;;;;;7.18;2.40;;;6.60;99.90;;;6.00;100.00;97507.28;4991856;28;20038;-50
2022/11/03 02:41:52;;;;;;;8.13;2.85;;;6.60;99.90;;;5.98;100.00;97509.06;4993237;28;20038;-49
2022/11/03 02:44:19;;;;;;;8.00;2.80;;;6.60;99.90;;;6.00;100.00;97505.53;4989193;28;20201;-48
2022/11/03 02:46:51;;;;;;;7.68;2.67;;;6.60;99.90;;;6.02;100.00;97513.38;4987017;28;20057;-48
2022/11/03 02:49:16;;;;;;;7.90;2.60;;;6.60;99.90;;;6.05;100.00;97508.09;4986593;28;20030;-47
2022/11/03 02:51:42;;;;;;;5.13;2.53;;;6.70;99.90;;;6.03;100.00;97489.78;4992608;28;20084;-46
2022/11/03 02:54:19;;;;;;;13.48;4.43;;;6.70;99.90;;;6.10;100.00;97501.88;4986473;28;20521;-51
2022/11/03 02:56:55;;;;;;;6.05;3.42;;;6.70;99.90;;;6.10;100.00;97483.53;4985458;28;20527;-50
2022/11/03 02:59:26;;;;;;;6.85;3.20;;;6.70;99.90;;;6.06;100.00;97479.22;4987686;28;20666;-50
2022/11/03 03:02:02;;;;;;;8.18;2.97;;;6.70;99.90;;;6.08;100.00;97473.97;4985101;28;20252;-50
2022/11/03 03:04:39;;;;;;;6.15;3.17;;;6.70;99.90;;;6.03;100.00;97466.22;4994335;28;20030;-49
2022/11/03 03:07:11;;;;;;;9.65;2.78;;;6.70;99.90;;;6.07;100.00;97461.78;4986146;28;20025;-51
2022/11/03 03:09:47;;;;;;;7.50;3.22;;;6.70;99.90;;;6.05;100.00;97459.19;4988930;28;20119;-49
2022/11/03 03:12:16;;;;;;;7.72;3.20;;;6.60;99.90;;;6.01;100.00;97462.75;4983363;28;20139;-51
2022/11/03 03:14:45;;;;;;;11.02;3.58;;;6.70;99.90;;;6.05;100.00;97453.09;4980407;28;20462;-49
2022/11/03 03:17:22;;;;;;;11.43;3.55;;;6.60;99.90;;;6.06;100.00;97460.91;4982927;28;20085;-50
2022/11/03 03:20:30;;;;;;;7.25;3.30;;;6.70;99.90;;;6.07;100.00;97452.16;4991367;28;20038;-47
2022/11/03 03:23:15;;;;;;;8.25;3.40;;;6.70;99.90;;;6.07;100.00;97446.94;4984660;28;20080;-47
2022/11/03 03:25:50;;;;;;;9.20;3.33;;;6.70;99.90;;;6.05;100.00;97443.47;4987439;28;20030;-47
2022/11/03 03:28:22;;;;;;;9.07;3.53;;;6.70;99.90;;;6.03;100.00;97436.53;4980988;28;20030;-48
2022/11/03 03:30:51;;;;;;;10.40;3.15;;;6.70;99.90;;;6.02;100.00;97437.44;4988368;28;20030;-48
2022/11/03 03:33:18;;;;;;;7.53;3.00;;;6.60;99.90;;;5.99;100.00;97438.34;4986577;28;20187;-48
2022/11/03 03:35:48;;;;;;;12.05;3.53;;;6.60;99.90;;;5.95;100.00;97427.94;4990808;28;20033;-47
2022/11/03 03:38:20;;;;;;;5.95;3.03;;;6.60;99.90;;;5.92;100.00;97432.34;4971030;28;20030;-50
2022/11/03 03:40:51;;;;;;;8.05;3.38;;;6.60;99.90;;;5.92;100.00;97428.84;4984884;28;20046;-47
2022/11/03 03:43:19;;;;;;;10.00;3.15;;;6.50;99.90;;;5.91;100.00;97421.91;4986782;28;20018;-47
2022/11/03 03:45:47;;;;;;;7.25;2.95;;;6.50;99.90;;;5.91;100.00;97421.91;4991767;28;20042;-47
2022/11/03 03:48:13;;;;;;;7.53;3.45;;;6.60;99.90;;;5.90;100.00;97420.16;4993450;28;20065;-49
2022/11/03 03:50:42;;;;;;;7.93;3.45;;;6.50;99.90;;;5.90;100.00;97412.31;5015128;28;20176;-48
2022/11/03 03:53:10;;;;;;;7.93;3.55;;;6.50;99.90;;;5.88;100.00;97406.22;4992799;28;20029;-48
2022/11/03 03:55:43;;;;;;;7.22;2.90;;;6.60;99.90;;;5.87;100.00;97402.75;4993842;28;20053;-49
2022/11/03 03:58:12;;;;;;;7.50;3.58;;;6.50;99.90;;;5.85;100.00;97395.81;4997795;28;20088;-46
2022/11/03 04:00:39;;;;;;;8.90;3.03;;;6.50;99.90;;;5.85;100.00;97393.19;4995917;28;20033;-51
2022/11/03 04:03:08;;;;;;;6.32;3.30;;;6.50;99.90;;;5.84;100.00;97392.34;4992473;28;20030;-48
2022/11/03 04:05:34;;;;;;;7.65;2.97;;;6.50;99.90;;;5.85;100.00;97390.56;4986259;28;20180;-47
2022/11/03 04:07:59;;;;;;;10.57;4.55;;;6.50;99.90;;;5.87;100.00;97381.81;4991068;28;20437;-47
2022/11/03 04:10:25;;;;;;;13.23;3.85;;;6.50;99.90;;;5.89;100.00;97376.56;4991478;28;20363;-51
2022/11/03 04:23:47;;;;;;;9.70;3.50;;;6.60;99.90;;;5.88;100.00;97365.22;4985891;28;20048;-49
2022/11/03 04:26:17;;;;;;;7.95;4.20;;;6.50;99.90;;;5.90;100.00;97370.41;4981628;28;20066;-48
2022/11/03 04:28:44;;;;;;;6.63;3.85;;;6.50;99.90;;;5.86;100.00;97353.91;4990693;28;20788;-49
2022/11/03 04:31:12;;;;;;;8.68;3.75;;;6.50;99.90;;;5.83;100.00;97364.47;4992379;28;20561;-51
2022/11/03 04:33:40;;;;;;;9.98;3.92;;;6.50;99.90;;;5.79;100.00;97356.69;4990639;28;20371;-47
2022/11/03 04:36:22;;;;;;;6.38;3.80;;;6.40;99.90;;;5.77;100.00;97359.31;4990890;28;20033;-48
2022/11/03 04:38:49;;;;;;;9.30;4.17;;;6.40;99.90;;;5.72;100.00;97354.19;4987062;28;20061;-47
2022/11/03 04:41:19;;;;;;;8.48;3.95;;;6.40;99.90;;;5.69;100.00;97348.16;4991591;28;20034;-47
2022/11/03 04:43:45;;;;;;;7.78;3.85;;;6.30;99.90;;;5.66;100.00;97345.59;4995451;28;20064;-53
2022/11/03 04:46:16;;;;;;;6.75;3.85;;;6.30;99.90;;;5.59;100.00;97336.13;4987004;28;20034;-50
2022/11/03 04:48:42;;;;;;;7.03;4.38;;;6.20;99.90;;;5.56;100.00;97342.25;4993426;28;20037;-47
2022/11/03 04:51:21;;;;;;;8.35;3.92;;;6.20;99.90;;;5.51;100.00;97344.97;4992330;28;20030;-47
2022/11/03 04:54:10;;;;;;;8.30;4.53;;;6.20;99.90;;;5.50;100.00;97338.00;4987698;28;20140;-47
2022/11/03 04:56:35;;;;;;;8.02;4.15;;;6.20;99.90;;;5.46;100.00;97333.72;4989379;28;20041;-48
2022/11/03 04:59:02;;;;;;;7.72;4.03;;;6.10;99.90;;;5.42;100.00;97331.16;4988235;28;20418;-48
2022/11/03 05:01:28;;;;;;;7.53;3.75;;;6.10;99.90;;;5.40;100.00;97331.22;4984415;28;20043;-47
2022/11/03 05:03:54;;;;;;;9.77;4.55;;;6.10;99.90;;;5.42;100.00;97326.81;4989917;28;20262;-49
2022/11/03 05:06:25;;;;;;;6.80;3.85;;;6.00;99.90;;;5.41;100.00;97326.84;4989733;28;20477;-50
2022/11/03 05:09:10;;;;;;;13.35;4.32;;;6.00;99.90;;;5.23;100.00;97296.66;4991407;28;20037;-48
2022/11/03 05:11:43;;;;;;;11.75;4.28;;;6.00;99.90;;;5.37;100.00;97319.97;4987145;28;20053;-48
2022/11/03 05:14:18;;;;;;;7.07;3.80;;;6.00;99.90;;;5.40;100.00;97309.41;4983791;28;20040;-50
2022/11/03 05:16:46;;;;;;;8.30;4.00;;;6.00;99.90;;;5.41;100.00;97312.00;4989616;28;20065;-48
2022/11/03 05:19:23;;;;;;;6.15;3.58;;;6.00;99.90;;;5.40;100.00;97307.69;4989039;28;20148;-48
2022/11/03 05:21:51;;;;;;;7.43;3.85;;;6.00;99.90;;;5.34;100.00;97302.53;4988495;28;20136;-47
2022/11/03 05:24:20;;;;;;;8.85;3.70;;;6.00;99.90;;;5.34;100.00;97292.09;4991686;28;20030;-48
2022/11/03 05:26:47;;;;;;;12.95;4.15;;;6.00;99.90;;;5.40;100.00;97296.34;4992742;28;20030;-48
2022/11/03 05:29:23;;;;;;;7.68;3.80;;;6.00;99.90;;;5.32;100.00;97284.25;4993364;28;20053;-50
2022/11/03 05:31:52;;;;;;;11.70;4.13;;;6.00;99.90;;;5.38;100.00;97291.13;4992757;28;20036;-49
2022/11/03 05:34:30;;;;;;;7.90;3.88;;;6.00;99.90;;;5.37;100.00;97288.56;4993014;28;20381;-49
2022/11/03 05:37:30;;;;;;;6.70;3.50;;;6.00;99.90;;;5.33;100.00;97279.91;4992086;28;20046;-51
2022/11/03 05:40:24;;;;;;;8.18;3.72;;;6.00;99.90;;;5.25;100.00;97266.97;4990230;28;20147;-49
2022/11/03 05:43:01;;;;;;;9.88;4.30;;;6.00;99.90;;;5.31;100.00;97279.06;4992900;28;20050;-47
2022/11/03 05:45:32;;;;;;;8.77;4.22;;;6.00;99.90;;;5.31;100.00;97268.59;4994676;28;20121;-50
2022/11/03 05:48:00;;;;;;;7.80;4.20;;;6.00;99.90;;;5.30;100.00;97253.81;4991257;28;20038;-48
2022/11/03 05:50:29;;;;;;;8.38;3.90;;;5.90;99.90;;;5.26;100.00;97244.31;4991190;28;20134;-48
2022/11/03 05:53:25;;;;;;;9.30;3.83;;;5.90;99.90;;;5.27;100.00;97259.09;4993723;28;20129;-48
2022/11/03 05:55:51;;;;;;;7.05;3.83;;;5.90;99.90;;;5.25;100.00;97251.28;4989674;28;20089;-48
2022/11/03 05:58:39;;;;;;;10.57;4.20;;;5.90;99.90;;;5.21;100.00;97260.06;4990068;28;20681;-49
2022/11/03 06:01:33;;;;;;;11.50;4.57;;;5.90;99.90;;;5.20;100.00;97263.56;4991196;28;20057;-49
2022/11/03 06:04:24;;;;;;;7.63;4.13;;;5.80;99.90;;;5.16;100.00;97254.06;4989774;28;20035;-47
2022/11/03 06:07:01;;;;;;;7.60;4.10;;;5.80;99.90;;;5.15;100.00;97255.81;4990282;28;20030;-48
2022/11/03 06:09:28;;;;;;;8.27;4.35;;;5.80;99.90;;;5.14;100.00;97256.69;4993660;28;20402;-50
2022/11/03 06:11:57;;;;;;;8.25;4.40;;;5.80;99.90;;;5.12;100.00;97245.41;5020294;23;20397;-60
2022/11/03 06:14:26;;;;;;;10.40;4.25;;;5.80;99.90;;;5.09;100.00;97252.44;5012715;28;20052;-60
2022/11/03 06:16:54;;;;;;;8.18;4.65;;;5.80;99.90;;;5.08;100.00;97242.84;5008530;28;20041;-60
2022/11/03 06:19:21;;;;;;;6.35;3.80;;;5.80;99.90;;;5.08;100.00;97228.06;5014772;28;20105;-60
2022/11/03 06:21:50;;;;;;;10.02;4.40;;;5.70;99.90;;;5.09;100.00;97224.53;5002720;28;20595;-60
2022/11/03 06:24:21;;;;;;;7.80;4.20;;;5.80;99.90;;;5.13;100.00;97218.38;5001242;28;20419;-59
2022/11/03 06:26:48;;;;;;;7.72;3.70;;;5.80;99.90;;;5.15;100.00;97214.00;4988906;28;20030;-60
2022/11/03 06:29:17;;;;;;;7.45;4.45;;;5.80;99.90;;;5.17;100.00;97211.34;4999297;28;20065;-59
2022/11/03 06:31:46;;;;;;;8.23;4.00;;;5.90;99.90;;;5.22;100.00;97209.47;4995433;28;20038;-60
2022/11/03 06:34:46;;;;;;;8.05;3.85;;;5.90;99.90;;;5.26;100.00;97210.31;4992901;28;20033;-60
2022/11/03 06:37:33;;;;;;;9.35;4.90;;;5.90;99.90;;;5.31;100.00;97216.28;4997959;28;20049;-60
2022/11/03 06:40:24;;;;;;;9.60;4.63;;;6.00;99.90;;;5.40;100.00;97217.88;4996149;28;20077;-60
2022/11/03 06:42:53;;;;;;;7.03;4.20;;;6.00;99.90;;;5.43;100.00;97212.59;5001176;28;20036;-60
2022/11/03 06:45:24;;;;;;;9.05;4.95;;;6.10;99.90;;;5.54;100.00;97227.22;4998971;28;20076;-60
2022/11/03 06:47:52;;;;;;;8.18;4.28;;;6.20;99.90;;;5.61;100.00;97224.44;5006412;28;20030;-60
2022/11/03 06:50:27;;;;;;;14.15;4.97;;;6.20;99.90;;;5.64;100.00;97216.56;5007033;28;20377;-60
2022/11/03 06:52:53;;;;;;;8.13;4.60;;;6.30;99.90;;;5.73;100.00;97216.34;5001886;28;20030;-60
2022/11/03 06:55:30;;;;;;;9.98;4.25;;;6.40;99.90;;;5.79;100.00;97217.97;4998220;28;20113;-59
2022/11/03 06:58:06;;;;;;;7.85;4.00;;;6.40;99.90;;;5.87;100.00;97219.56;4995878;28;20038;-60
2022/11/03 07:00:38;;;;;;;12.45;4.93;;;6.50;99.90;;;5.93;100.00;97214.16;4998289;28;20053;-59
2022/11/03 07:03:26;;;;;;;16.08;4.88;;;6.60;99.90;;;6.06;100.00;97213.94;5004790;28;20067;-60
2022/11/03 07:05:58;;;;;;;14.35;4.57;;;6.70;99.90;;;6.16;100.00;97209.38;4995128;28;20034;-60
2022/11/03 07:08:41;;;;;;;10.30;4.63;;;6.80;99.90;;;6.26;100.00;97214.38;4997892;28;20025;-60
2022/11/03 07:11:24;;;;;;;8.70;5.00;;;6.90;99.90;;;6.39;100.00;97203.59;5004041;28;20025;-60
2022/11/03 07:13:55;;;;;;;7.95;4.10;;;7.00;99.90;;;6.50;100.00;97205.06;5020655;28;20036;-60
2022/11/03 07:16:32;;;;;;;6.95;4.40;;;7.10;99.90;;;6.63;100.00;97194.31;4995326;28;20124;-60
2022/11/03 07:19:00;;;;;;;11.38;4.82;;;7.30;99.90;;;6.73;100.00;97185.31;4991266;28;20030;-60
2022/11/03 07:21:35;;;;;;;13.02;5.30;;;7.40;99.90;;;6.81;100.00;97172.00;4978269;28;20326;-60
2022/11/03 07:24:18;;;;;;;16.20;6.03;;;7.40;99.90;;;6.88;100.00;97173.56;4995404;28;20120;-60
2022/11/03 07:26:44;;;;;;;11.63;5.28;;;7.50;99.90;;;6.98;100.00;97180.31;4999214;28;20474;-60
2022/11/03 07:29:21;;;;;;;11.45;4.97;;;7.60;99.90;;;7.06;100.00;97178.34;4997701;28;20034;-60
2022/11/03 07:31:48;;;;;;;8.23;5.18;;;7.60;99.90;;;7.12;100.00;97179.06;4994951;28;20122;-60
2022/11/03 07:34:21;;;;;;;6.88;3.97;;;7.70;99.90;;;7.17;100.00;97175.41;4988928;28;20037;-60
2022/11/03 07:36:48;;;;;;;12.73;5.07;;;7.80;99.90;;;7.22;100.00;97178.78;4999665;28;20034;-60
2022/11/03 07:39:18;;;;;;;9.52;5.28;;;7.90;99.90;;;7.30;100.00;97175.09;4994050;28;20505;-60
2022/11/03 07:41:44;;;;;;;9.57;5.13;;;7.90;99.90;;;7.35;100.00;97168.81;4996345;28;20021;-60
2022/11/03 07:44:21;;;;;;;12.48;5.15;;;8.00;99.90;;;7.44;100.00;97168.56;4997964;28;20030;-60
2022/11/03 07:46:48;;;;;;;9.20;4.80;;;8.10;99.90;;;7.52;100.00;97167.47;4998636;28;20145;-59
2022/11/03 07:49:27;;;;;;;11.88;4.93;;;8.20;99.90;;;7.61;100.00;97162.00;5001190;28;21095;-63
2022/11/03 07:51:56;;;;;;;12.55;4.90;;;8.30;99.90;;;7.68;100.00;97165.28;5000063;28;21072;-63
2022/11/03 07:54:32;;;;;;;8.10;4.20;;;8.30;99.90;;;7.80;100.00;97165.75;4992469;28;20121;-64
2022/11/03 07:57:15;;;;;;;8.75;4.45;;;8.40;99.90;;;7.91;100.00;97157.56;5001350;28;20034;-63
2022/11/03 07:59:44;;;;;;;7.80;4.18;;;8.60;99.90;;;7.99;100.00;97150.34;5000380;28;20581;-63
2022/11/03 08:02:36;;;;;;;9.48;4.32;;;8.70;99.90;;;8.18;100.00;97152.38;4989758;28;20036;-63
2022/11/03 08:05:03;;;;;;;10.80;4.47;;;8.80;99.90;;;8.34;100.00;97147.50;4990407;28;20040;-63
2022/11/03 08:07:30;;;;;;;6.15;3.80;;;9.00;99.90;;;8.46;100.00;97147.16;4989404;28;20038;-64
2022/11/03 08:09:56;;;;;;;9.70;4.35;;;9.10;99.90;;;8.57;100.00;97142.38;4988307;28;20559;-64
2022/11/03 08:12:22;;;;;;;11.07;4.10;;;9.20;99.90;;;8.67;100.00;97135.06;4990437;28;20042;-64
2022/11/03 08:14:48;;;;;;;6.60;3.80;;;9.30;99.90;;;8.76;100.00;97131.28;4991290;28;20117;-64
2022/11/03 08:17:14;;;;;;;10.27;4.18;;;9.40;99.90;;;8.85;100.00;97135.38;4994003;28;20515;-64
2022/11/03 08:19:40;;;;;;;9.98;3.40;;;9.40;99.90;;;8.88;100.00;97116.81;4998339;28;20029;-64
2022/11/03 08:22:06;;;;;;;7.20;3.63;;;9.50;99.90;;;8.97;100.00;97113.88;4992109;28;20046;-64
2022/11/03 08:24:31;;;;;;;9.95;3.40;;;9.60;99.90;;;9.03;100.00;97107.56;4987477;28;20033;-64
2022/11/03 08:26:57;;;;;;;7.28;3.85;;;9.60;99.90;;;9.09;100.00;97102.06;4984644;28;21084;-64
2022/11/03 08:29:26;;;;;;;7.95;3.40;;;9.70;99.90;;;9.15;100.00;97099.22;4989172;28;20034;-64
2022/11/03 08:31:52;;;;;;;10.70;3.45;;;9.70;99.90;;;9.25;100.00;97103.22;4990148;28;20033;-64
2022/11/03 08:34:18;;;;;;;7.15;2.97;;;9.80;99.90;;;9.33;100.00;97095.94;4995284;28;20029;-64
2022/11/03 08:36:44;;;;;;;9.68;3.78;;;9.90;99.90;;;9.40;100.00;97090.44;4998140;28;20037;-63
2022/11/03 08:39:10;;;;;;;8.77;3.65;;;10.00;99.90;;;9.48;100.00;97097.13;4989985;28;20045;-64
2022/11/03 08:41:36;;;;;;;10.35;3.53;;;10.10;99.90;;;9.57;100.00;97095.94;4996467;28;21750;-63
2022/11/03 08:44:01;;;;;;;8.65;3.42;;;10.10;99.90;;;9.67;100.00;97091.16;4990059;28;20038;-63
2022/11/03 08:46:27;;;;;;;6.35;3.42;;;10.20;99.90;;;9.79;100.00;97087.22;5004125;28;20120;-64
2022/11/03 08:48:53;;;;;;;10.27;3.30;;;10.30;99.90;;;9.91;100.00;97087.59;4998948;28;20038;-64
2022/11/03 08:51:19;;;;;;;6.25;2.80;;;10.40;99.90;;;10.05;100.00;97083.53;4997082;28;20076;-64
2022/11/03 08:53:49;;;;;;;8.23;3.78;;;10.60;99.90;;;10.16;100.00;97077.81;4976655;28;20112;-64
2022/11/03 08:56:15;;;;;;;9.27;2.92;;;10.70;99.90;;;10.30;100.00;97065.81;4997892;28;20677;-64
2022/11/03 08:58:41;;;;;;;6.80;2.97;;;10.90;99.90;;;10.43;100.00;97060.09;4992261;28;20034;-65
2022/11/03 09:01:07;;;;;;;11.85;3.33;;;11.00;99.90;;;10.52;100.00;97074.66;4994404;28;20036;-64
2022/11/03 09:03:33;;;;;;;4.70;2.70;;;11.10;99.90;;;10.52;100.00;97067.59;4992643;28;20034;-64
2022/11/03 09:05:58;;;;;;;5.60;2.72;;;11.20;99.90;;;10.58;100.00;97069.13;4997486;28;20036;-64
2022/11/03 09:08:24;;;;;;;9.95;2.85;;;11.10;99.90;;;10.56;100.00;97068.34;4997956;28;20104;-65
2022/11/03 09:10:50;;;;;;;10.68;3.08;;;11.10;99.90;;;10.58;100.00;97067.34;4986671;28;20569;-63
2022/11/03 09:13:15;;;;;;;6.28;2.60;;;11.20;99.90;;;10.54;100.00;97057.00;4981321;28;20038;-66
2022/11/03 09:15:41;;;;;;;8.63;2.75;;;11.20;99.90;;;10.60;100.00;97060.22;4993307;28;20148;-65
2022/11/03 09:18:07;;;;;;;5.18;2.90;;;11.20;99.90;;;10.70;100.00;97060.69;5003092;28;20076;-65
2022/11/03 09:20:32;;;;;;;7.35;2.50;;;11.30;99.90;;;10.81;100.00;97049.69;5004621;28;20579;-64
2022/11/03 09:22:58;;;;;;;4.50;2.40;;;11.40;99.90;;;10.93;100.00;97056.19;5003320;28;20034;-66
2022/11/03 09:25:24;;;;;;;6.80;2.20;;;11.50;99.90;;;11.06;100.00;97052.09;4996643;28;20061;-66
2022/11/03 09:27:50;;;;;;;6.93;2.38;;;11.60;99.90;;;11.19;100.00;97047.13;4998987;28;20441;-66
2022/11/03 09:30:16;;;;;;;5.68;1.95;;;11.70;99.90;;;11.29;100.00;97056.34;4996679;28;20026;-65
2022/11/03 09:32:42;;;;;;;4.60;1.80;;;11.80;99.90;;;11.37;100.00;97042.78;4994322;28;20034;-65
2022/11/03 09:35:08;;;;;;;6.72;2.17;;;11.90;99.90;;;11.45;100.00;97040.66;5000929;28;20041;-65
2022/11/03 09:37:35;;;;;;;7.20;1.85;;;12.00;99.90;;;11.52;100.00;97036.81;4994978;28;20038;-65
2022/11/03 09:40:01;;;;;;;7.45;2.20;;;12.10;99.90;;;11.52;100.00;97038.56;5001114;28;20030;-65
2022/11/03 09:42:27;;;;;;;5.60;2.00;;;12.10;99.90;;;11.59;100.00;97038.25;4992361;28;20025;-65
2022/11/03 09:44:54;;;;;;;4.90;2.40;;;12.20;99.90;;;11.68;100.00;97036.91;4997835;28;20052;-64
2022/11/03 09:47:34;;;;;;;3.67;1.90;;;12.20;99.90;;;11.74;100.00;97030.53;4987600;28;20394;-65
2022/11/03 09:50:01;;;;;;;7.13;1.92;;;12.30;99.90;;;11.80;100.00;97023.13;4997643;28;20119;-64
2022/11/03 09:52:27;;;;;;;4.15;1.63;;;12.40;99.90;;;11.94;100.00;97019.88;5001045;28;20029;-65
2022/11/03 09:54:58;;;;;;;4.50;1.98;;;12.50;99.90;;;12.02;100.00;97014.19;4990925;28;20033;-65
2022/11/03 09:57:27;;;;;;;4.90;1.98;;;12.60;99.90;;;12.12;100.00;97023.41;4983227;28;20033;-66
2022/11/03 09:59:53;;;;;;;8.52;2.30;;;12.60;99.90;;;12.25;100.00;97009.59;4987823;28;20075;-66
2022/11/03 10:02:30;;;;;;;7.22;2.20;;;12.70;99.90;;;12.33;100.00;97007.41;5000726;28;20025;-64
2022/11/03 10:04:59;;;;;;;3.95;1.85;;;12.80;99.90;;;12.37;100.00;97006.31;4994133;28;20040;-66
2022/11/03 10:07:27;;;;;;;5.10;2.20;;;12.90;99.90;;;12.46;100.00;96999.72;5001672;28;20030;-65
2022/11/03 10:09:53;;;;;;;4.65;1.90;;;13.00;99.90;;;12.50;100.00;97002.13;4995848;28;20077;-65
2022/11/03 10:12:21;;;;;;;8.23;2.00;;;13.00;99.90;;;12.52;100.00;96999.41;4994135;28;20045;-65
2022/11/03 10:14:47;;;;;;;4.03;1.98;;;13.10;99.90;;;12.59;100.00;96999.00;5000594;28;20040;-66
2022/11/03 10:17:28;;;;;;;5.70;1.90;;;13.10;99.90;;;12.71;100.00;96981.63;4999780;28;20531;-62
2022/11/03 10:19:56;;;;;;;5.25;1.83;;;13.20;99.90;;;12.75;100.00;96990.28;4974969;28;20502;-66
2022/11/03 10:22:22;;;;;;;4.75;2.25;;;13.30;99.90;;;12.88;100.00;96993.13;4982477;28;20042;-65
2022/11/03 10:24:48;;;;;;;5.45;2.35;;;13.40;99.90;;;12.95;100.00;97002.44;4985017;28;20040;-65
2022/11/03 10:27:24;;;;;;;5.93;2.00;;;13.50;99.90;;;13.04;100.00;96993.19;4990333;28;20072;-66
2022/11/03 10:30:11;;;;;;;5.22;1.83;;;13.50;99.90;;;13.08;100.00;96989.41;4998701;28;20513;-66
2022/11/03 10:32:37;;;;;;;4.05;1.58;;;13.60;99.90;;;13.16;100.00;96972.19;4990330;28;20093;-66
2022/11/03 10:35:33;;;;;;;6.28;1.77;;;13.70;99.90;;;13.20;98.75;96964.94;4997819;28;20033;-66
2022/11/03 10:38:33;;;;;;;5.95;1.90;;;13.70;99.90;;;13.28;100.00;96972.44;4999223;28;20161;-68
2022/11/03 10:41:23;;;;;;;6.63;1.80;;;13.80;99.90;;;13.36;99.54;96964.97;4976198;28;20034;-67
2022/11/03 10:44:23;;;;;;;3.05;1.70;;;13.80;99.90;;;13.39;97.11;96959.53;4993820;28;20029;-67
2022/11/03 10:46:58;;;;;;;7.22;1.80;;;13.90;99.90;;;13.48;96.50;96944.91;4998908;28;20107;-67
2022/11/03 10:49:24;;;;;;;6.07;2.40;;;14.00;99.90;;;13.44;98.81;96938.94;4995116;28;20056;-67
2022/11/03 10:51:53;;;;;;;4.90;1.63;;;14.00;99.90;;;13.60;98.89;96952.16;5002062;28;20025;-67
2022/11/03 10:54:22;;;;;;;7.63;1.83;;;14.00;99.90;;;13.61;95.67;96956.53;4993866;28;20121;-67
2022/11/03 10:56:49;;;;;;;3.83;1.83;;;14.10;99.90;;;13.65;95.90;96950.09;4999613;28;20034;-67